Sierra Nevada Aquatic Research Lab (SNARL) Reserve, California Weather observations

Data are for 10 minute period ending at time listed.
 Day   Time   Solar   Ave.   Ave.  Ave.  Vector  Max.   Baro.   Total    
  of    of     Rad.   Air    Rel.  Wind   Wind   Wind  Press.  Precip.   
Year   Day            Temp.  Hum.  Speed  Dir.   Gust                    
2015   (PST)  Kw/m2    F      %     mph   deg.    mph    mb.     in.     
-------------------------------------------------------------------------
 180   18:20   0.06   75.2    36    3.3   315     7.8   789.1    0.00 
 180   18:30   0.04   73.4    38    4.1   283     7.9   789.2    0.00 
 180   18:40   0.02   70.9    40    4.9   276     7.0   789.1    0.00 
 180   18:50   0.01   69.3    43    3.7   243     6.0   789.1    0.00 
 180   19:00   0.01   68.2    44    2.7   301     5.0   789.1    0.00 
 180   19:10   0.00   66.8    48    1.4   274     3.5   789.1    0.00 
 180   19:20   0.00   65.8    47    3.8   290     8.6   789.3    0.00 
 180   19:30   0.00   65.5    46    5.5   257     8.5   789.5    0.00 
 180   19:40   0.00   65.2    48    3.5   262     6.9   789.5    0.00 
 180   19:50   0.00   65.1    47    4.9   261     8.3   789.5    0.00 
 180   20:00   0.00   65.4    47    5.0   260     8.0   789.5    0.00 
 180   20:10   0.00   64.7    48    2.8   259     5.3   789.6    0.00 
 180   20:20   0.00   63.4    51    0.7   340     2.0   789.8    0.00 
 180   20:30   0.00   61.1    53    3.0   244     4.7   789.9    0.00 
 180   20:40   0.00   60.0    55    4.2   247     7.7   789.9    0.00 
 180   20:50   0.00   60.2    56    6.0   246     7.7   789.9    0.00 
 180   21:00   0.00   59.9    56    6.6   231     7.7   789.9    0.00 
 180   21:10   0.00   60.2    56    4.4   235     6.2   789.9    0.00 
 180   21:20   0.00   60.3    56    4.7   250     7.0   790.0    0.00 
 180   21:30   0.00   59.6    57    3.0   264     6.6   790.1    0.00 
 180   21:40   0.00   58.8    56    3.2   205     6.0   790.2    0.00 
 180   21:50   0.00   57.7    58    4.4   218     6.4   790.2    0.00 
 180   22:00   0.00   57.9    58    4.5   216     6.7   790.1    0.00 
 180   22:10   0.00   59.0    57    2.9   220     6.6   790.1    0.00 
 180   22:20   0.00   59.1    57    5.9   233     8.2   790.1    0.00 
 180   22:30   0.00   60.0    56    5.0   236     8.4   790.0    0.00 
 180   22:40   0.00   61.0    54    5.3   229     9.6   790.0    0.00 
 180   22:50   0.00   61.7    52    5.3   213    10.0   790.0    0.00 
 180   23:00   0.00   62.2    52    4.9   215     8.8   790.1    0.00 
 180   23:10   0.00   61.1    54    5.8   315     9.8   790.1    0.00 
 180   23:20   0.00   61.8    52    6.8   296    12.1   790.1    0.00 
 180   23:30   0.00   62.5    52    4.1   303     6.9   790.1    0.00 
 180   23:40   0.00   62.1    52    4.2   290     8.0   790.1    0.00 
 180   23:50   0.00   61.8    52    5.7   297    10.5   790.1    0.00 
 181    0:00   0.00   60.7    54    4.4   296    10.6   790.1    0.00 
 181    0:10   0.00   58.5    58    2.4    92     5.5   790.1    0.00 
 181    0:20   0.00   55.6    64    2.3   208     5.0   790.0    0.00 
 181    0:30   0.00   54.5    64    1.9   252     3.8   790.0    0.00 
 181    0:40   0.00   54.9    66    3.2   348     5.6   790.0    0.00 
 181    0:50   0.00   54.1    66    0.4   174     2.2   790.0    0.00 
 181    1:00   0.00   52.3    69    0.5   270     1.9   790.0    0.00 
 181    1:10   0.00   51.4    70    1.4   238     3.0   789.9    0.00 
 181    1:20   0.00   50.5    72    0.9   200     2.9   789.8    0.00 
 181    1:30   0.00   49.8    71    0.6   110     2.1   789.8    0.00 
 181    1:40   0.00   49.4    73    1.3   244     3.1   789.8    0.00 
 181    1:50   0.00   49.8    72    1.6   225     2.9   789.7    0.00 
 181    2:00   0.00   49.7    74    0.9    83     2.0   789.7    0.00 
 181    2:10   0.00   49.7    73    0.9    14     3.4   789.7    0.00 
 181    2:20   0.00   49.2    74    0.5   244     1.5   789.7    0.00 
 181    2:30   0.00   49.1    76    1.6   202     2.9   789.7    0.00 
 181    2:40   0.00   48.0    76    1.3   183     2.3   789.8    0.00 
 181    2:50   0.00   48.1    76    1.3   114     2.8   789.9    0.00 
 181    3:00   0.00   48.4    76    2.6   225     3.7   789.9    0.00 
 181    3:10   0.00   48.4    76    1.2   241     3.5   789.8    0.00 
 181    3:20   0.00   48.1    77    2.0    56     3.7   789.8    0.00 
 181    3:30   0.00   47.5    78    1.3   169     3.9   789.9    0.00 
 181    3:40   0.00   48.3    77    1.3   229     3.4   789.9    0.00 
 181    3:50   0.00   48.2    78    1.2   227     3.4   789.9    0.00 
 181    4:00   0.00   47.4    80    0.3   157     1.3   789.9    0.00 
 181    4:10   0.00   47.7    80    2.0   234     4.3   789.8    0.00 
 181    4:20   0.00   47.6    79    2.6   241     4.0   789.9    0.00 
 181    4:30   0.00   47.7    80    2.0   273     3.9   789.9    0.00 
 181    4:40   0.00   47.6    80    1.5    61     3.1   789.9    0.00 
 181    4:50   0.00   49.0    79    1.2    41     2.9   790.0    0.00 
 181    5:00   0.02   48.0    78    1.4   245     2.3   789.9    0.00 
 181    5:10   0.03   47.4    82    1.8   273     2.9   789.9    0.00 
 181    5:20   0.05   48.7    81    1.0   356     1.8   790.0    0.00 
 181    5:30   0.06   49.6    79    1.3   233     2.3   790.1    0.00 
 181    5:40   0.07   51.0    77    0.9     6     2.0   790.3    0.00 
 181    5:50   0.10   52.9    74    0.8   262     1.9   790.3    0.00 
 181    6:00   0.16   56.3    67    0.3   123     1.4   790.2    0.00 
 181    6:10   0.22   59.8    60    0.2   242     1.2   790.1    0.00 
 181    6:20   0.25   63.2    55    0.0    88     0.4   789.9    0.00 
 181    6:30   0.28   65.3    54    1.0    37     2.0   789.9    0.00 
 181    6:40   0.32   66.5    51    1.6    79     3.1   790.1    0.00 
 181    6:50   0.35   67.5    50    1.5    61     3.7   790.3    0.00 
 181    7:00   0.38   67.6    50    2.0    46     4.2   790.3    0.00 
 181    7:10   0.41   67.7    51    1.9    52     3.2   790.4    0.00 
 181    7:20   0.45   68.3    50    2.6    62     4.2   790.4    0.00 
 181    7:30   0.48   68.9    49    3.0    74     5.3   790.4    0.00 
 181    7:40   0.51   69.9    47    1.4    39     2.8   790.4    0.00 
 181    7:50   0.54   72.5    44    1.2    42     2.9   790.5    0.00 
 181    8:00   0.57   73.6    42    2.6    61     4.5   790.5    0.00 
 181    8:10   0.60   74.3    41    2.6    67     5.4   790.5    0.00 
 181    8:20   0.63   75.7    38    2.3    72     4.5   790.4    0.00 
 181    8:30   0.66   76.7    36    1.8    59     4.4   790.3    0.00 
 181    8:40   0.69   78.3    36    2.8    69     5.0   790.3    0.00 
 181    8:50   0.72   79.8    31    1.9    70     5.3   790.3    0.00 
 181    9:00   0.70   79.6    32    2.9    81     6.9   790.3    0.00 
 181    9:10   0.77   80.4    30    3.0    79     6.2   790.2    0.00 
 181    9:20   0.81   81.5    28    2.3    45     6.1   790.1    0.00 
 181    9:30   0.85   82.2    28    2.5    28     5.7   790.0    0.00 
 181    9:40   0.90   81.8    27    2.5    86     5.8   790.0    0.00 
 181    9:50   0.87   82.5    27    4.4    66    10.6   789.9    0.00 
 181   10:00   0.95   82.5    26    6.5    95    11.2   789.9    0.00 
 181   10:10   1.02   82.6    25    6.2    96    12.7   789.9    0.00 
 181   10:20   0.99   83.5    24    5.4    94    12.4   789.8    0.00 
 181   10:30   1.01   84.3    24    5.0    58     9.6   789.7    0.00 
 181   10:40   1.04   84.1    23    4.3    30    10.6   789.6    0.00 
 181   10:50   0.98   84.5    23    5.7    71    15.4   789.5    0.00 
 181   11:00   0.65   83.6    24    5.5    65    11.0   789.5    0.00 
 181   11:10   0.43   82.9    24    7.7    92    15.1   789.5    0.00 
 181   11:20   0.59   82.8    24    5.2    75    10.9   789.5    0.00 
 181   11:30   1.05   83.9    25    5.2    56    12.2   789.4    0.00 
 181   11:40   1.08   86.2    23    5.1    48     9.2   789.2    0.00 
 181   11:50   0.18   84.0    24    4.4    26    10.4   789.1    0.00 
 181   12:00   0.27   82.4    24    1.6   337     4.0   789.1    0.00 
 181   12:10   0.53   83.4    23    2.0   109     4.7   789.0    0.00 
 181   12:20   0.28   83.3    24    1.4   359     5.0   789.0    0.00 
 181   12:30   0.25   82.8    25    3.1    56     6.4   788.9    0.00 
 181   12:40   0.16   82.3    26    2.3    72     6.5   789.0    0.00 
 181   12:50   0.12   81.4    27    3.8    95     7.4   788.9    0.00 
 181   13:00   0.14   80.6    27    6.7    94    10.6   788.8    0.00 
 181   13:10   0.14   79.4    36    2.9    76     9.6   789.0    0.00 
 181   13:20   0.20   76.9    36    5.3   309    17.3   789.0    0.00 
 181   13:30   0.13   75.3    39    5.7   302    11.1   789.0    0.00 
 181   13:40   0.12   75.5    40    3.1   325     6.4   788.9    0.00 
 181   13:50   0.10   76.2    40    2.9   305     8.6   789.0    0.00 
 181   14:00   0.07   75.3    39   11.5   242    35.6   789.2    0.00 
 181   14:10   0.05   74.6    36   23.6   214    30.8   789.7    0.00 
 181   14:20   0.05   73.3    37   23.8   215    35.3   789.8    0.00 
 181   14:30   0.06   73.2    36   20.4   221    30.4   789.7    0.00 
 181   14:40   0.07   73.5    35   20.6   215    30.2   789.5    0.00 
 181   14:50   0.07   74.2    32   17.6   209    27.1   789.4    0.00 
 181   15:00   0.08   74.9    30   17.2   207    24.8   789.4    0.00 
 181   15:10   0.12   75.3    30   14.0   213    19.5   789.5    0.00 
 181   15:20   0.14   75.3    30   11.8   230    20.3   789.5    0.00 
 181   15:30   0.15   75.3    30   12.9   220    21.1   789.7    0.00 
 181   15:40   0.17   75.2    30   15.3   220    23.8   789.7    0.00 
 181   15:50   0.24   74.9    31   15.2   212    26.5   789.5    0.00 
 181   16:00   0.35   75.8    30   14.0   220    25.3   789.3    0.00 
 181   16:10   0.39   76.4    31   13.3   220    23.5   789.3    0.00 
 181   16:20   0.34   77.1    30   11.8   235    17.0   789.1    0.00 
 181   16:30   0.20   76.1    33    4.6   291     9.7   789.0    0.00 
 181   16:40   0.18   75.9    34    4.2   295     9.3   789.0    0.00 
 181   16:50   0.18   75.0    36    5.3   322    10.2   789.1    0.00 
 181   17:00   0.18   74.2    38    4.9   337    10.4   789.1    0.00 
 181   17:10   0.19   74.3    38    3.6   342     7.7   789.1    0.00 
 181   17:20   0.18   74.6    38    3.6   312     6.9   789.1    0.00 
 181   17:30   0.16   75.3    36    2.8   332     5.8   789.1    0.00 
 181   17:40   0.13   75.5    35    3.2   310     6.1   789.1    0.00 
 181   17:50   0.11   75.3    34    2.1   268     3.9   789.1    0.00 
 181   18:00   0.11   75.7    33    1.6   183     3.1   789.2    0.00 
 181   18:10   0.10   75.6    33    2.6   122     4.5   789.3    0.00 

Return to SNARL Reserve graphs page.


Western Regional Climate Center,wrcc@dri.edu